KLYV

Quentin Aanenson Field Airport

Luverne, Minnesota, USA
METAR KLYV 242115Z AUTO 33005KT 10SM BKN013 OVC040 15/11 A2985 RMK AO2
Observed Flight Rules
Sep-24 @ 21:15 UTC (7 minutes ago) Marginal Visual Flight Rules
Wind Visibility Clouds
330° at 5 knots 10 miles
  • Broken at 1,300' AGL
  • Overcast at 4,000' AGL
Temperatures Readings
Current 15°C / 59°F
Dewpoint 11°C / 52°F
Humidity 77%
Altimeter 29.85" Hg
Pressure 1011 hPa
Elevation 436
METAR KLYV 242115Z AUTO 33005KT 10SM BKN013 OVC040 15/11 A2985 RMK AO2
Observed Flight Rules
Sep-24 @ 21:15 UTC
(7 minutes ago)
MVFR
Wind Visibility
330° at 5 knots 10 miles
Clouds
  • Broken at 1,300' AGL
  • Overcast at 4,000' AGL
Temperature Dewpoint
15°C / 59°F 11°C / 52°F
Humidity Altimeter Pressure
77% 29.85" Hg 1011 hPa